sensor_id;sensor_type;location;lat;lon;timestamp;P1;durP1;ratioP1;P2;durP2;ratioP2
21192;SDS011;10754;51.106;7.164;2023-06-19T00:02:14;3.95;;;2.55;;
21192;SDS011;10754;51.106;7.164;2023-06-19T00:04:39;2.55;;;2.35;;
21192;SDS011;10754;51.106;7.164;2023-06-19T00:07:05;2.95;;;2.70;;
21192;SDS011;10754;51.106;7.164;2023-06-19T00:09:31;2.65;;;2.45;;
21192;SDS011;10754;51.106;7.164;2023-06-19T00:11:57;2.63;;;2.42;;
21192;SDS011;10754;51.106;7.164;2023-06-19T00:14:24;2.72;;;2.53;;
21192;SDS011;10754;51.106;7.164;2023-06-19T00:16:50;2.60;;;2.40;;
21192;SDS011;10754;51.106;7.164;2023-06-19T00:19:16;2.58;;;2.38;;
21192;SDS011;10754;51.106;7.164;2023-06-19T00:21:42;2.85;;;2.63;;
21192;SDS011;10754;51.106;7.164;2023-06-19T00:24:08;3.53;;;2.60;;
21192;SDS011;10754;51.106;7.164;2023-06-19T00:26:35;2.78;;;2.58;;
21192;SDS011;10754;51.106;7.164;2023-06-19T00:29:00;3.53;;;2.80;;
21192;SDS011;10754;51.106;7.164;2023-06-19T00:31:26;2.50;;;2.30;;
21192;SDS011;10754;51.106;7.164;2023-06-19T00:33:52;2.40;;;2.20;;
21192;SDS011;10754;51.106;7.164;2023-06-19T00:36:18;2.88;;;2.67;;
21192;SDS011;10754;51.106;7.164;2023-06-19T00:38:45;3.28;;;3.08;;
21192;SDS011;10754;51.106;7.164;2023-06-19T00:41:11;2.75;;;2.55;;
21192;SDS011;10754;51.106;7.164;2023-06-19T00:43:37;3.45;;;3.15;;
21192;SDS011;10754;51.106;7.164;2023-06-19T00:46:03;2.67;;;2.47;;
21192;SDS011;10754;51.106;7.164;2023-06-19T00:48:30;2.88;;;2.67;;
21192;SDS011;10754;51.106;7.164;2023-06-19T00:50:56;3.22;;;2.92;;
21192;SDS011;10754;51.106;7.164;2023-06-19T00:53:23;2.80;;;2.60;;
21192;SDS011;10754;51.106;7.164;2023-06-19T00:55:49;2.72;;;2.53;;
21192;SDS011;10754;51.106;7.164;2023-06-19T00:58:16;3.05;;;2.85;;
21192;SDS011;10754;51.106;7.164;2023-06-19T01:00:42;3.20;;;3.00;;
21192;SDS011;10754;51.106;7.164;2023-06-19T01:03:08;2.88;;;2.67;;
21192;SDS011;10754;51.106;7.164;2023-06-19T01:05:34;2.92;;;2.72;;
21192;SDS011;10754;51.106;7.164;2023-06-19T01:08:02;2.53;;;2.33;;
21192;SDS011;10754;51.106;7.164;2023-06-19T01:10:40;2.92;;;2.65;;
21192;SDS011;10754;51.106;7.164;2023-06-19T01:13:44;3.42;;;2.63;;
21192;SDS011;10754;51.106;7.164;2023-06-19T01:16:15;3.15;;;2.95;;
21192;SDS011;10754;51.106;7.164;2023-06-19T01:18:41;4.40;;;3.08;;
21192;SDS011;10754;51.106;7.164;2023-06-19T01:21:11;3.05;;;2.85;;
21192;SDS011;10754;51.106;7.164;2023-06-19T01:23:41;3.88;;;2.92;;
21192;SDS011;10754;51.106;7.164;2023-06-19T01:26:07;3.25;;;2.88;;
21192;SDS011;10754;51.106;7.164;2023-06-19T01:28:36;3.30;;;3.00;;
21192;SDS011;10754;51.106;7.164;2023-06-19T01:33:52;3.15;;;2.95;;
21192;SDS011;10754;51.106;7.164;2023-06-19T01:36:20;2.90;;;2.70;;
21192;SDS011;10754;51.106;7.164;2023-06-19T01:38:47;3.40;;;3.10;;
21192;SDS011;10754;51.106;7.164;2023-06-19T01:41:14;3.05;;;2.85;;
21192;SDS011;10754;51.106;7.164;2023-06-19T01:43:41;2.95;;;2.75;;
21192;SDS011;10754;51.106;7.164;2023-06-19T01:46:07;3.20;;;2.90;;
21192;SDS011;10754;51.106;7.164;2023-06-19T01:48:34;2.75;;;2.55;;
21192;SDS011;10754;51.106;7.164;2023-06-19T01:51:00;3.85;;;2.65;;
21192;SDS011;10754;51.106;7.164;2023-06-19T01:53:28;3.00;;;2.80;;
21192;SDS011;10754;51.106;7.164;2023-06-19T01:55:55;3.03;;;2.72;;
21192;SDS011;10754;51.106;7.164;2023-06-19T01:58:21;2.63;;;2.42;;
21192;SDS011;10754;51.106;7.164;2023-06-19T02:00:46;3.10;;;2.90;;
21192;SDS011;10754;51.106;7.164;2023-06-19T02:03:12;2.72;;;2.53;;
21192;SDS011;10754;51.106;7.164;2023-06-19T02:05:37;3.10;;;2.90;;
21192;SDS011;10754;51.106;7.164;2023-06-19T02:08:04;3.25;;;2.97;;
21192;SDS011;10754;51.106;7.164;2023-06-19T02:10:31;3.30;;;3.00;;
21192;SDS011;10754;51.106;7.164;2023-06-19T02:12:56;3.58;;;3.28;;
21192;SDS011;10754;51.106;7.164;2023-06-19T02:15:22;4.28;;;3.33;;
21192;SDS011;10754;51.106;7.164;2023-06-19T02:17:47;3.70;;;3.00;;
21192;SDS011;10754;51.106;7.164;2023-06-19T02:20:14;3.40;;;3.10;;
21192;SDS011;10754;51.106;7.164;2023-06-19T02:22:39;3.85;;;3.40;;
21192;SDS011;10754;51.106;7.164;2023-06-19T02:25:06;3.65;;;3.10;;
21192;SDS011;10754;51.106;7.164;2023-06-19T02:27:32;3.80;;;3.50;;
21192;SDS011;10754;51.106;7.164;2023-06-19T02:29:57;3.35;;;3.05;;
21192;SDS011;10754;51.106;7.164;2023-06-19T02:32:23;3.58;;;3.28;;
21192;SDS011;10754;51.106;7.164;2023-06-19T02:34:48;3.97;;;3.67;;
21192;SDS011;10754;51.106;7.164;2023-06-19T02:37:14;3.78;;;3.47;;
21192;SDS011;10754;51.106;7.164;2023-06-19T02:39:40;3.72;;;3.40;;
21192;SDS011;10754;51.106;7.164;2023-06-19T02:42:05;3.80;;;3.50;;
21192;SDS011;10754;51.106;7.164;2023-06-19T02:44:31;4.18;;;3.88;;
21192;SDS011;10754;51.106;7.164;2023-06-19T02:46:57;4.78;;;3.80;;
21192;SDS011;10754;51.106;7.164;2023-06-19T02:49:22;3.10;;;2.90;;
21192;SDS011;10754;51.106;7.164;2023-06-19T02:51:48;3.20;;;3.00;;
21192;SDS011;10754;51.106;7.164;2023-06-19T02:54:13;3.63;;;3.35;;
21192;SDS011;10754;51.106;7.164;2023-06-19T02:56:39;4.30;;;3.97;;
21192;SDS011;10754;51.106;7.164;2023-06-19T02:59:04;3.78;;;3.47;;
21192;SDS011;10754;51.106;7.164;2023-06-19T03:01:30;3.58;;;3.38;;
21192;SDS011;10754;51.106;7.164;2023-06-19T03:03:55;3.53;;;3.22;;
21192;SDS011;10754;51.106;7.164;2023-06-19T03:06:21;3.40;;;3.10;;
21192;SDS011;10754;51.106;7.164;2023-06-19T03:08:47;3.22;;;3.03;;
21192;SDS011;10754;51.106;7.164;2023-06-19T03:11:12;3.58;;;3.15;;
21192;SDS011;10754;51.106;7.164;2023-06-19T03:13:51;3.85;;;3.33;;
21192;SDS011;10754;51.106;7.164;2023-06-19T03:16:17;3.22;;;3.03;;
21192;SDS011;10754;51.106;7.164;2023-06-19T03:18:44;4.20;;;3.90;;
21192;SDS011;10754;51.106;7.164;2023-06-19T03:21:12;3.40;;;3.20;;
21192;SDS011;10754;51.106;7.164;2023-06-19T03:23:44;3.80;;;3.50;;
21192;SDS011;10754;51.106;7.164;2023-06-19T03:26:09;3.63;;;3.42;;
21192;SDS011;10754;51.106;7.164;2023-06-19T03:28:35;4.00;;;3.58;;
21192;SDS011;10754;51.106;7.164;2023-06-19T03:31:01;4.13;;;3.83;;
21192;SDS011;10754;51.106;7.164;2023-06-19T03:33:26;3.58;;;3.38;;
21192;SDS011;10754;51.106;7.164;2023-06-19T03:35:52;3.88;;;3.58;;
21192;SDS011;10754;51.106;7.164;2023-06-19T03:38:17;4.03;;;3.60;;
21192;SDS011;10754;51.106;7.164;2023-06-19T03:40:43;3.97;;;3.67;;
21192;SDS011;10754;51.106;7.164;2023-06-19T03:43:08;3.53;;;3.33;;
21192;SDS011;10754;51.106;7.164;2023-06-19T03:45:35;3.75;;;3.55;;
21192;SDS011;10754;51.106;7.164;2023-06-19T03:48:01;3.40;;;3.20;;
21192;SDS011;10754;51.106;7.164;2023-06-19T03:50:26;3.63;;;3.33;;
21192;SDS011;10754;51.106;7.164;2023-06-19T03:52:52;3.70;;;3.40;;
21192;SDS011;10754;51.106;7.164;2023-06-19T03:55:17;4.13;;;3.83;;
21192;SDS011;10754;51.106;7.164;2023-06-19T03:57:43;3.75;;;3.38;;
21192;SDS011;10754;51.106;7.164;2023-06-19T04:00:08;3.90;;;3.50;;
21192;SDS011;10754;51.106;7.164;2023-06-19T04:02:36;3.88;;;3.58;;
21192;SDS011;10754;51.106;7.164;2023-06-19T04:05:02;3.83;;;3.53;;
21192;SDS011;10754;51.106;7.164;2023-06-19T04:07:27;4.15;;;3.75;;
21192;SDS011;10754;51.106;7.164;2023-06-19T04:09:53;3.78;;;3.53;;
21192;SDS011;10754;51.106;7.164;2023-06-19T04:12:19;3.15;;;2.85;;
21192;SDS011;10754;51.106;7.164;2023-06-19T04:14:44;3.50;;;3.20;;
21192;SDS011;10754;51.106;7.164;2023-06-19T04:17:10;3.20;;;2.90;;
21192;SDS011;10754;51.106;7.164;2023-06-19T04:19:35;2.97;;;2.78;;
21192;SDS011;10754;51.106;7.164;2023-06-19T04:22:01;3.22;;;2.67;;
21192;SDS011;10754;51.106;7.164;2023-06-19T04:24:26;2.85;;;2.65;;
21192;SDS011;10754;51.106;7.164;2023-06-19T04:26:52;3.78;;;2.47;;
21192;SDS011;10754;51.106;7.164;2023-06-19T04:29:17;4.57;;;3.38;;
21192;SDS011;10754;51.106;7.164;2023-06-19T04:31:46;2.67;;;2.47;;
21192;SDS011;10754;51.106;7.164;2023-06-19T04:34:12;3.58;;;2.28;;
21192;SDS011;10754;51.106;7.164;2023-06-19T04:36:39;2.60;;;2.40;;
21192;SDS011;10754;51.106;7.164;2023-06-19T04:39:05;2.30;;;2.10;;
21192;SDS011;10754;51.106;7.164;2023-06-19T04:41:31;2.33;;;2.13;;
21192;SDS011;10754;51.106;7.164;2023-06-19T04:43:57;2.45;;;2.25;;
21192;SDS011;10754;51.106;7.164;2023-06-19T04:46:22;2.17;;;1.98;;
21192;SDS011;10754;51.106;7.164;2023-06-19T04:48:48;2.10;;;1.83;;
21192;SDS011;10754;51.106;7.164;2023-06-19T04:51:17;2.10;;;1.90;;
21192;SDS011;10754;51.106;7.164;2023-06-19T04:53:46;2.53;;;1.63;;
21192;SDS011;10754;51.106;7.164;2023-06-19T04:56:14;1.65;;;1.55;;
21192;SDS011;10754;51.106;7.164;2023-06-19T04:58:40;3.08;;;2.17;;
21192;SDS011;10754;51.106;7.164;2023-06-19T05:01:13;1.77;;;1.67;;
21192;SDS011;10754;51.106;7.164;2023-06-19T05:03:39;1.60;;;1.50;;
21192;SDS011;10754;51.106;7.164;2023-06-19T05:06:05;1.52;;;1.42;;
21192;SDS011;10754;51.106;7.164;2023-06-19T05:08:31;1.60;;;1.50;;
21192;SDS011;10754;51.106;7.164;2023-06-19T05:10:56;1.65;;;1.50;;
21192;SDS011;10754;51.106;7.164;2023-06-19T05:13:22;1.52;;;1.42;;
21192;SDS011;10754;51.106;7.164;2023-06-19T05:15:48;2.30;;;1.48;;
21192;SDS011;10754;51.106;7.164;2023-06-19T05:18:15;1.50;;;1.40;;
21192;SDS011;10754;51.106;7.164;2023-06-19T05:20:41;1.45;;;1.35;;
21192;SDS011;10754;51.106;7.164;2023-06-19T05:23:06;1.70;;;1.60;;
21192;SDS011;10754;51.106;7.164;2023-06-19T05:25:32;4.10;;;1.52;;
21192;SDS011;10754;51.106;7.164;2023-06-19T05:27:57;1.60;;;1.50;;
21192;SDS011;10754;51.106;7.164;2023-06-19T05:30:23;2.05;;;1.60;;
21192;SDS011;10754;51.106;7.164;2023-06-19T05:32:48;1.60;;;1.50;;
21192;SDS011;10754;51.106;7.164;2023-06-19T05:35:14;2.38;;;1.60;;
21192;SDS011;10754;51.106;7.164;2023-06-19T05:37:39;4.00;;;1.50;;
21192;SDS011;10754;51.106;7.164;2023-06-19T05:40:08;2.50;;;1.65;;
21192;SDS011;10754;51.106;7.164;2023-06-19T05:42:34;1.48;;;1.38;;
21192;SDS011;10754;51.106;7.164;2023-06-19T05:45:00;1.90;;;1.60;;
21192;SDS011;10754;51.106;7.164;2023-06-19T05:47:27;1.65;;;1.50;;
21192;SDS011;10754;51.106;7.164;2023-06-19T05:49:53;1.67;;;1.48;;
21192;SDS011;10754;51.106;7.164;2023-06-19T05:52:19;2.67;;;1.83;;
21192;SDS011;10754;51.106;7.164;2023-06-19T05:54:45;4.10;;;1.77;;
21192;SDS011;10754;51.106;7.164;2023-06-19T05:57:11;1.50;;;1.40;;
21192;SDS011;10754;51.106;7.164;2023-06-19T05:59:37;1.92;;;1.30;;
21192;SDS011;10754;51.106;7.164;2023-06-19T06:02:02;1.55;;;1.45;;
21192;SDS011;10754;51.106;7.164;2023-06-19T06:04:28;1.90;;;1.80;;
21192;SDS011;10754;51.106;7.164;2023-06-19T06:06:55;1.65;;;1.55;;
21192;SDS011;10754;51.106;7.164;2023-06-19T06:09:21;1.63;;;1.52;;
21192;SDS011;10754;51.106;7.164;2023-06-19T06:11:47;2.38;;;1.65;;
21192;SDS011;10754;51.106;7.164;2023-06-19T06:14:12;2.25;;;1.63;;
21192;SDS011;10754;51.106;7.164;2023-06-19T06:16:37;1.75;;;1.30;;
21192;SDS011;10754;51.106;7.164;2023-06-19T06:19:03;1.50;;;1.17;;
21192;SDS011;10754;51.106;7.164;2023-06-19T06:21:28;1.45;;;1.35;;
21192;SDS011;10754;51.106;7.164;2023-06-19T06:23:54;2.15;;;1.30;;
21192;SDS011;10754;51.106;7.164;2023-06-19T06:26:20;1.58;;;1.27;;
21192;SDS011;10754;51.106;7.164;2023-06-19T06:28:46;1.52;;;1.00;;
21192;SDS011;10754;51.106;7.164;2023-06-19T06:31:12;1.00;;;1.00;;
21192;SDS011;10754;51.106;7.164;2023-06-19T06:33:37;1.27;;;1.17;;
21192;SDS011;10754;51.106;7.164;2023-06-19T06:36:03;1.77;;;1.00;;
21192;SDS011;10754;51.106;7.164;2023-06-19T06:38:28;1.15;;;1.00;;
21192;SDS011;10754;51.106;7.164;2023-06-19T06:40:54;1.48;;;1.13;;
21192;SDS011;10754;51.106;7.164;2023-06-19T06:43:19;0.95;;;0.85;;
21192;SDS011;10754;51.106;7.164;2023-06-19T06:45:45;1.45;;;1.10;;
21192;SDS011;10754;51.106;7.164;2023-06-19T06:48:11;1.20;;;0.93;;
21192;SDS011;10754;51.106;7.164;2023-06-19T06:50:36;2.80;;;0.98;;
21192;SDS011;10754;51.106;7.164;2023-06-19T06:53:02;1.10;;;0.80;;
21192;SDS011;10754;51.106;7.164;2023-06-19T06:55:27;0.90;;;0.70;;
21192;SDS011;10754;51.106;7.164;2023-06-19T06:57:53;1.48;;;1.00;;
21192;SDS011;10754;51.106;7.164;2023-06-19T07:00:19;1.38;;;0.80;;
21192;SDS011;10754;51.106;7.164;2023-06-19T07:02:44;6.72;;;1.17;;
21192;SDS011;10754;51.106;7.164;2023-06-19T07:05:12;12.68;;;1.30;;
21192;SDS011;10754;51.106;7.164;2023-06-19T07:07:38;1.13;;;0.90;;
21192;SDS011;10754;51.106;7.164;2023-06-19T07:10:04;0.70;;;0.70;;
21192;SDS011;10754;51.106;7.164;2023-06-19T07:12:30;1.48;;;0.70;;
21192;SDS011;10754;51.106;7.164;2023-06-19T07:14:55;1.35;;;0.80;;
21192;SDS011;10754;51.106;7.164;2023-06-19T07:17:21;1.42;;;0.88;;
21192;SDS011;10754;51.106;7.164;2023-06-19T07:19:47;0.68;;;0.65;;
21192;SDS011;10754;51.106;7.164;2023-06-19T07:22:13;1.30;;;1.10;;
21192;SDS011;10754;51.106;7.164;2023-06-19T07:24:39;1.17;;;0.80;;
21192;SDS011;10754;51.106;7.164;2023-06-19T07:27:05;0.95;;;0.75;;
21192;SDS011;10754;51.106;7.164;2023-06-19T07:29:31;1.10;;;0.90;;
21192;SDS011;10754;51.106;7.164;2023-06-19T07:31:57;0.95;;;0.85;;
21192;SDS011;10754;51.106;7.164;2023-06-19T07:34:23;0.70;;;0.50;;
21192;SDS011;10754;51.106;7.164;2023-06-19T07:36:49;1.85;;;1.23;;
21192;SDS011;10754;51.106;7.164;2023-06-19T07:39:15;0.90;;;0.90;;
21192;SDS011;10754;51.106;7.164;2023-06-19T07:41:41;2.97;;;1.05;;
21192;SDS011;10754;51.106;7.164;2023-06-19T07:44:06;3.75;;;1.10;;
21192;SDS011;10754;51.106;7.164;2023-06-19T07:46:32;0.82;;;0.82;;
21192;SDS011;10754;51.106;7.164;2023-06-19T07:48:57;1.33;;;0.90;;
21192;SDS011;10754;51.106;7.164;2023-06-19T07:51:22;1.48;;;0.95;;
21192;SDS011;10754;51.106;7.164;2023-06-19T07:53:48;4.60;;;1.00;;
21192;SDS011;10754;51.106;7.164;2023-06-19T07:56:13;1.10;;;0.80;;
21192;SDS011;10754;51.106;7.164;2023-06-19T07:58:39;1.08;;;0.88;;
21192;SDS011;10754;51.106;7.164;2023-06-19T08:01:04;2.42;;;1.30;;
21192;SDS011;10754;51.106;7.164;2023-06-19T08:03:30;0.98;;;0.98;;
21192;SDS011;10754;51.106;7.164;2023-06-19T08:05:56;1.73;;;1.20;;
21192;SDS011;10754;51.106;7.164;2023-06-19T08:08:21;1.35;;;1.10;;
21192;SDS011;10754;51.106;7.164;2023-06-19T08:10:47;1.77;;;1.00;;
21192;SDS011;10754;51.106;7.164;2023-06-19T08:13:12;1.85;;;1.00;;
21192;SDS011;10754;51.106;7.164;2023-06-19T08:15:38;3.10;;;1.55;;
21192;SDS011;10754;51.106;7.164;2023-06-19T08:18:03;5.63;;;2.35;;
21192;SDS011;10754;51.106;7.164;2023-06-19T08:20:29;8.82;;;3.00;;
21192;SDS011;10754;51.106;7.164;2023-06-19T08:22:55;4.57;;;1.52;;
21192;SDS011;10754;51.106;7.164;2023-06-19T08:25:21;2.67;;;1.20;;
21192;SDS011;10754;51.106;7.164;2023-06-19T08:27:47;0.82;;;0.80;;
21192;SDS011;10754;51.106;7.164;2023-06-19T08:30:12;2.28;;;0.95;;
21192;SDS011;10754;51.106;7.164;2023-06-19T08:32:38;1.23;;;1.10;;
21192;SDS011;10754;51.106;7.164;2023-06-19T08:35:04;1.17;;;0.90;;
21192;SDS011;10754;51.106;7.164;2023-06-19T08:37:29;3.25;;;1.17;;
21192;SDS011;10754;51.106;7.164;2023-06-19T08:39:55;1.40;;;1.23;;
21192;SDS011;10754;51.106;7.164;2023-06-19T08:42:21;1.55;;;0.93;;
21192;SDS011;10754;51.106;7.164;2023-06-19T08:44:47;12.07;;;2.92;;
21192;SDS011;10754;51.106;7.164;2023-06-19T08:47:13;1.20;;;1.00;;
21192;SDS011;10754;51.106;7.164;2023-06-19T08:49:39;2.05;;;1.17;;
21192;SDS011;10754;51.106;7.164;2023-06-19T08:52:04;3.35;;;1.35;;
21192;SDS011;10754;51.106;7.164;2023-06-19T08:54:31;1.52;;;1.20;;
21192;SDS011;10754;51.106;7.164;2023-06-19T08:57:03;1.10;;;1.00;;
21192;SDS011;10754;51.106;7.164;2023-06-19T08:59:29;1.88;;;1.27;;
21192;SDS011;10754;51.106;7.164;2023-06-19T09:01:56;5.28;;;1.38;;
21192;SDS011;10754;51.106;7.164;2023-06-19T09:04:23;1.45;;;1.20;;
21192;SDS011;10754;51.106;7.164;2023-06-19T09:06:54;2.85;;;1.30;;
21192;SDS011;10754;51.106;7.164;2023-06-19T09:09:22;24.42;;;5.38;;
21192;SDS011;10754;51.106;7.164;2023-06-19T09:14:34;5.57;;;1.50;;
21192;SDS011;10754;51.106;7.164;2023-06-19T09:17:01;9.90;;;3.30;;
21192;SDS011;10754;51.106;7.164;2023-06-19T09:19:27;2.88;;;1.50;;
21192;SDS011;10754;51.106;7.164;2023-06-19T09:21:53;3.08;;;1.83;;
21192;SDS011;10754;51.106;7.164;2023-06-19T09:24:32;1.60;;;1.38;;
21192;SDS011;10754;51.106;7.164;2023-06-19T09:27:12;2.20;;;1.80;;
21192;SDS011;10754;51.106;7.164;2023-06-19T09:29:44;3.08;;;1.80;;
21192;SDS011;10754;51.106;7.164;2023-06-19T09:32:22;2.28;;;1.75;;
21192;SDS011;10754;51.106;7.164;2023-06-19T09:34:49;1.95;;;1.73;;
21192;SDS011;10754;51.106;7.164;2023-06-19T09:37:19;2.78;;;2.20;;
21192;SDS011;10754;51.106;7.164;2023-06-19T09:39:54;1.67;;;1.58;;
21192;SDS011;10754;51.106;7.164;2023-06-19T09:42:24;2.95;;;1.98;;
21192;SDS011;10754;51.106;7.164;2023-06-19T09:44:59;3.67;;;2.10;;
21192;SDS011;10754;51.106;7.164;2023-06-19T09:47:32;2.35;;;1.98;;
21192;SDS011;10754;51.106;7.164;2023-06-19T09:50:04;4.10;;;1.98;;
21192;SDS011;10754;51.106;7.164;2023-06-19T09:52:31;2.20;;;2.00;;
21192;SDS011;10754;51.106;7.164;2023-06-19T09:54:57;2.42;;;1.92;;
21192;SDS011;10754;51.106;7.164;2023-06-19T09:57:27;2.47;;;1.92;;
21192;SDS011;10754;51.106;7.164;2023-06-19T09:59:54;2.13;;;1.92;;
21192;SDS011;10754;51.106;7.164;2023-06-19T10:02:24;4.78;;;2.33;;
21192;SDS011;10754;51.106;7.164;2023-06-19T10:04:52;3.63;;;2.20;;
21192;SDS011;10754;51.106;7.164;2023-06-19T10:07:24;4.65;;;2.58;;
21192;SDS011;10754;51.106;7.164;2023-06-19T10:10:07;2.88;;;2.40;;
21192;SDS011;10754;51.106;7.164;2023-06-19T10:12:37;2.40;;;2.20;;
21192;SDS011;10754;51.106;7.164;2023-06-19T10:15:08;2.53;;;1.90;;
21192;SDS011;10754;51.106;7.164;2023-06-19T10:17:34;2.90;;;2.08;;
21192;SDS011;10754;51.106;7.164;2023-06-19T10:20:00;2.63;;;2.08;;
21192;SDS011;10754;51.106;7.164;2023-06-19T10:22:30;2.63;;;2.35;;
21192;SDS011;10754;51.106;7.164;2023-06-19T10:24:56;3.22;;;2.63;;
21192;SDS011;10754;51.106;7.164;2023-06-19T10:27:21;3.13;;;2.50;;
21192;SDS011;10754;51.106;7.164;2023-06-19T10:29:51;4.00;;;2.50;;
21192;SDS011;10754;51.106;7.164;2023-06-19T10:32:18;2.25;;;2.15;;
21192;SDS011;10754;51.106;7.164;2023-06-19T10:34:45;2.80;;;2.60;;
21192;SDS011;10754;51.106;7.164;2023-06-19T10:37:12;3.80;;;2.53;;
21192;SDS011;10754;51.106;7.164;2023-06-19T10:39:38;2.42;;;2.22;;
21192;SDS011;10754;51.106;7.164;2023-06-19T10:42:07;2.85;;;2.60;;
21192;SDS011;10754;51.106;7.164;2023-06-19T10:44:33;3.10;;;2.30;;
21192;SDS011;10754;51.106;7.164;2023-06-19T10:46:59;2.80;;;2.25;;
21192;SDS011;10754;51.106;7.164;2023-06-19T10:49:26;2.60;;;2.40;;
21192;SDS011;10754;51.106;7.164;2023-06-19T10:51:52;3.03;;;2.45;;
21192;SDS011;10754;51.106;7.164;2023-06-19T10:54:23;4.03;;;2.47;;
21192;SDS011;10754;51.106;7.164;2023-06-19T10:56:49;4.50;;;2.72;;
21192;SDS011;10754;51.106;7.164;2023-06-19T10:59:16;2.20;;;1.95;;
21192;SDS011;10754;51.106;7.164;2023-06-19T11:01:46;5.00;;;2.72;;
21192;SDS011;10754;51.106;7.164;2023-06-19T11:04:14;2.65;;;2.15;;
21192;SDS011;10754;51.106;7.164;2023-06-19T11:06:41;2.20;;;1.98;;
21192;SDS011;10754;51.106;7.164;2023-06-19T11:09:09;2.15;;;1.85;;
21192;SDS011;10754;51.106;7.164;2023-06-19T11:11:39;2.90;;;2.15;;
21192;SDS011;10754;51.106;7.164;2023-06-19T11:14:06;2.50;;;2.10;;
21192;SDS011;10754;51.106;7.164;2023-06-19T11:16:32;2.83;;;2.13;;
21192;SDS011;10754;51.106;7.164;2023-06-19T11:18:59;4.03;;;2.20;;
21192;SDS011;10754;51.106;7.164;2023-06-19T11:21:35;2.28;;;2.03;;
21192;SDS011;10754;51.106;7.164;2023-06-19T11:24:03;2.63;;;1.95;;
21192;SDS011;10754;51.106;7.164;2023-06-19T11:26:42;2.50;;;1.88;;
21192;SDS011;10754;51.106;7.164;2023-06-19T11:29:16;2.72;;;2.10;;
21192;SDS011;10754;51.106;7.164;2023-06-19T11:31:43;2.55;;;2.33;;
21192;SDS011;10754;51.106;7.164;2023-06-19T11:34:09;2.90;;;2.00;;
21192;SDS011;10754;51.106;7.164;2023-06-19T11:36:38;2.13;;;1.92;;
21192;SDS011;10754;51.106;7.164;2023-06-19T11:39:05;3.90;;;2.35;;
21192;SDS011;10754;51.106;7.164;2023-06-19T11:41:35;2.22;;;1.95;;
21192;SDS011;10754;51.106;7.164;2023-06-19T11:44:03;2.28;;;1.90;;
21192;SDS011;10754;51.106;7.164;2023-06-19T11:46:30;3.85;;;2.08;;
21192;SDS011;10754;51.106;7.164;2023-06-19T11:49:13;2.50;;;2.25;;
21192;SDS011;10754;51.106;7.164;2023-06-19T11:51:43;4.25;;;2.40;;
21192;SDS011;10754;51.106;7.164;2023-06-19T11:54:09;4.20;;;2.10;;
21192;SDS011;10754;51.106;7.164;2023-06-19T11:56:35;2.78;;;2.58;;
21192;SDS011;10754;51.106;7.164;2023-06-19T11:59:02;2.35;;;2.03;;
21192;SDS011;10754;51.106;7.164;2023-06-19T12:01:34;2.40;;;2.10;;
21192;SDS011;10754;51.106;7.164;2023-06-19T12:04:00;2.90;;;2.05;;
21192;SDS011;10754;51.106;7.164;2023-06-19T12:06:27;3.83;;;2.30;;
21192;SDS011;10754;51.106;7.164;2023-06-19T12:08:52;2.20;;;2.00;;
21192;SDS011;10754;51.106;7.164;2023-06-19T12:11:18;2.90;;;2.30;;
21192;SDS011;10754;51.106;7.164;2023-06-19T12:13:44;2.70;;;2.15;;
21192;SDS011;10754;51.106;7.164;2023-06-19T12:16:10;2.40;;;2.15;;
21192;SDS011;10754;51.106;7.164;2023-06-19T12:18:36;2.92;;;2.40;;
21192;SDS011;10754;51.106;7.164;2023-06-19T12:21:02;5.93;;;2.75;;
21192;SDS011;10754;51.106;7.164;2023-06-19T12:23:28;3.08;;;2.63;;
21192;SDS011;10754;51.106;7.164;2023-06-19T12:25:53;2.63;;;2.33;;
21192;SDS011;10754;51.106;7.164;2023-06-19T12:28:19;3.28;;;1.90;;
21192;SDS011;10754;51.106;7.164;2023-06-19T12:30:45;2.88;;;1.85;;
21192;SDS011;10754;51.106;7.164;2023-06-19T12:33:10;3.50;;;2.15;;
21192;SDS011;10754;51.106;7.164;2023-06-19T12:35:40;3.17;;;2.63;;
21192;SDS011;10754;51.106;7.164;2023-06-19T12:38:08;3.83;;;2.60;;
21192;SDS011;10754;51.106;7.164;2023-06-19T12:40:34;2.47;;;2.28;;
21192;SDS011;10754;51.106;7.164;2023-06-19T12:43:01;2.35;;;2.05;;
21192;SDS011;10754;51.106;7.164;2023-06-19T12:45:27;2.30;;;2.10;;
21192;SDS011;10754;51.106;7.164;2023-06-19T12:47:53;5.03;;;2.22;;
21192;SDS011;10754;51.106;7.164;2023-06-19T12:50:18;2.00;;;1.77;;
21192;SDS011;10754;51.106;7.164;2023-06-19T12:52:44;2.50;;;2.08;;
21192;SDS011;10754;51.106;7.164;2023-06-19T12:55:09;2.00;;;1.80;;
21192;SDS011;10754;51.106;7.164;2023-06-19T12:57:35;2.28;;;1.92;;
21192;SDS011;10754;51.106;7.164;2023-06-19T13:00:01;4.60;;;2.15;;
21192;SDS011;10754;51.106;7.164;2023-06-19T13:02:27;2.35;;;2.10;;
21192;SDS011;10754;51.106;7.164;2023-06-19T13:04:52;2.08;;;1.88;;
21192;SDS011;10754;51.106;7.164;2023-06-19T13:07:18;2.83;;;2.25;;
21192;SDS011;10754;51.106;7.164;2023-06-19T13:09:43;2.60;;;2.30;;
21192;SDS011;10754;51.106;7.164;2023-06-19T13:12:09;2.33;;;2.13;;
21192;SDS011;10754;51.106;7.164;2023-06-19T13:14:34;2.45;;;2.03;;
21192;SDS011;10754;51.106;7.164;2023-06-19T13:17:00;2.47;;;1.83;;
21192;SDS011;10754;51.106;7.164;2023-06-19T13:19:25;2.50;;;2.00;;
21192;SDS011;10754;51.106;7.164;2023-06-19T13:21:51;3.00;;;2.33;;
21192;SDS011;10754;51.106;7.164;2023-06-19T13:24:17;3.08;;;1.98;;
21192;SDS011;10754;51.106;7.164;2023-06-19T13:26:43;1.90;;;1.80;;
21192;SDS011;10754;51.106;7.164;2023-06-19T13:29:09;2.35;;;2.15;;
21192;SDS011;10754;51.106;7.164;2023-06-19T13:31:36;2.28;;;2.08;;
21192;SDS011;10754;51.106;7.164;2023-06-19T13:34:01;4.78;;;2.88;;
21192;SDS011;10754;51.106;7.164;2023-06-19T13:36:27;2.88;;;2.00;;
21192;SDS011;10754;51.106;7.164;2023-06-19T13:38:53;3.17;;;2.28;;
21192;SDS011;10754;51.106;7.164;2023-06-19T13:41:18;2.55;;;2.30;;
21192;SDS011;10754;51.106;7.164;2023-06-19T13:43:44;5.70;;;2.30;;
21192;SDS011;10754;51.106;7.164;2023-06-19T13:46:11;2.78;;;2.33;;
21192;SDS011;10754;51.106;7.164;2023-06-19T13:48:36;3.20;;;2.17;;
21192;SDS011;10754;51.106;7.164;2023-06-19T13:51:02;4.10;;;2.50;;
21192;SDS011;10754;51.106;7.164;2023-06-19T13:53:28;3.72;;;2.30;;
21192;SDS011;10754;51.106;7.164;2023-06-19T13:55:57;2.20;;;2.00;;
21192;SDS011;10754;51.106;7.164;2023-06-19T13:58:23;2.50;;;1.83;;
21192;SDS011;10754;51.106;7.164;2023-06-19T14:00:49;2.10;;;1.90;;
21192;SDS011;10754;51.106;7.164;2023-06-19T14:03:15;3.90;;;2.20;;
21192;SDS011;10754;51.106;7.164;2023-06-19T14:05:41;2.88;;;2.58;;
21192;SDS011;10754;51.106;7.164;2023-06-19T14:08:06;4.80;;;1.92;;
21192;SDS011;10754;51.106;7.164;2023-06-19T14:10:32;2.17;;;1.98;;
21192;SDS011;10754;51.106;7.164;2023-06-19T14:12:57;2.47;;;1.80;;
21192;SDS011;10754;51.106;7.164;2023-06-19T14:15:23;4.13;;;2.13;;
21192;SDS011;10754;51.106;7.164;2023-06-19T14:17:48;2.58;;;2.10;;
21192;SDS011;10754;51.106;7.164;2023-06-19T14:20:14;2.03;;;1.83;;
21192;SDS011;10754;51.106;7.164;2023-06-19T14:22:40;3.15;;;2.28;;
21192;SDS011;10754;51.106;7.164;2023-06-19T14:25:05;2.95;;;1.83;;
21192;SDS011;10754;51.106;7.164;2023-06-19T14:27:31;1.95;;;1.83;;
21192;SDS011;10754;51.106;7.164;2023-06-19T14:29:56;1.88;;;1.77;;
21192;SDS011;10754;51.106;7.164;2023-06-19T14:32:22;2.30;;;2.10;;
21192;SDS011;10754;51.106;7.164;2023-06-19T14:34:51;2.80;;;2.00;;
21192;SDS011;10754;51.106;7.164;2023-06-19T14:37:16;2.67;;;2.03;;
21192;SDS011;10754;51.106;7.164;2023-06-19T14:39:42;2.30;;;2.10;;
21192;SDS011;10754;51.106;7.164;2023-06-19T14:42:08;2.63;;;2.05;;
21192;SDS011;10754;51.106;7.164;2023-06-19T14:44:35;2.33;;;2.13;;
21192;SDS011;10754;51.106;7.164;2023-06-19T14:47:01;3.70;;;2.25;;
21192;SDS011;10754;51.106;7.164;2023-06-19T14:49:27;3.08;;;1.90;;
21192;SDS011;10754;51.106;7.164;2023-06-19T14:51:52;2.83;;;2.10;;